Terminal Aerodrome Forecast
Issued by NWS Austin/San Antonio, TX

Home | Current Version | Previous Version | Text Only | Print | Product List | Glossary On
Versions: 1 2 3 4 5 6 7 8 9 10 11 12 13 14 15 16 17 18 19 20
000
FTUS44 KEWX 202300
TAFAUS
TAF
KAUS 202335Z 2100/2206 05004KT P6SM OVC023
     FM210600 05003KT P6SM OVC015
     FM211000 VRB02KT 6SM BR OVC007
     FM211700 19005KT P6SM OVC015
     FM212000 19007KT P6SM BKN025=

USA.gov is the U.S. government's official web portal to all federal, state and local government web resources and services.